Time;durP1;ratioP1;P1;durP2;ratioP2;P2;SDS_P1;SDS_P2;PMS_P1;PMS_P2;Temp;Humidity;BMP_temperature;BMP_pressure;BME280_temperature;BME280_humidity;BME280_pressure;Samples;Min_cycle;Max_cycle;Signal;HPM_P1;HPM_P2
2022/07/16 00:01:22;;;;;;;0.90;0.90;;;;;;;;;;5097391;28;20200;-61
2022/07/16 00:01:46;;;;;;;1.13;0.85;;;;;;;;;;5084096;28;20203;-61
2022/07/16 00:04:13;;;;;;;0.90;0.90;;;;;;;;;;5097728;28;20235;-61
2022/07/16 00:06:43;;;;;;;0.88;0.82;;;;;;;;;;5097368;28;20230;-61
2022/07/16 00:09:11;;;;;;;1.27;0.82;;;;;;;;;;5097469;28;20266;-61
2022/07/16 00:11:38;;;;;;;1.60;1.00;;;;;;;;;;5096809;28;20449;-61
2022/07/16 00:14:05;;;;;;;2.05;1.00;;;;;;;;;;5097583;28;20301;-61
2022/07/16 00:16:33;;;;;;;1.23;0.93;;;;;;;;;;5096461;28;20203;-61
2022/07/16 00:21:48;;;;;;;1.13;0.90;;;;;;;;;;5100988;28;20210;-61
2022/07/16 00:24:15;;;;;;;1.08;1.00;;;;;;;;;;5101355;28;20203;-61
2022/07/16 00:26:43;;;;;;;1.10;1.00;;;;;;;;;;5101210;28;20200;-61
2022/07/16 00:29:10;;;;;;;1.15;1.02;;;;;;;;;;5100881;28;20242;-61
2022/07/16 00:31:37;;;;;;;1.00;0.85;;;;;;;;;;5100800;28;20577;-61
2022/07/16 00:34:06;;;;;;;1.35;1.15;;;;;;;;;;5101562;28;20211;-61
2022/07/16 00:36:34;;;;;;;0.98;0.88;;;;;;;;;;5100745;28;20225;-61
2022/07/16 00:39:03;;;;;;;0.88;0.88;;;;;;;;;;5101214;28;20245;-61
2022/07/16 00:41:30;;;;;;;1.05;0.88;;;;;;;;;;5100251;28;20679;-61
2022/07/16 00:44:00;;;;;;;1.23;1.00;;;;;;;;;;5100347;28;20282;-61
2022/07/16 00:46:28;;;;;;;0.98;0.90;;;;;;;;;;5100711;28;20204;-61
2022/07/16 00:48:56;;;;;;;1.17;0.90;;;;;;;;;;5101337;28;20537;-61
2022/07/16 00:51:24;;;;;;;1.70;1.20;;;;;;;;;;5100226;28;20305;-62
2022/07/16 00:53:52;;;;;;;1.27;0.90;;;;;;;;;;5100481;28;20283;-61
2022/07/16 00:56:21;;;;;;;0.95;0.90;;;;;;;;;;5100453;28;20227;-61
2022/07/16 00:58:49;;;;;;;1.30;1.00;;;;;;;;;;5100612;28;20195;-62
2022/07/16 01:01:17;;;;;;;1.60;0.90;;;;;;;;;;5100795;28;20203;-61
2022/07/16 01:03:45;;;;;;;1.23;1.02;;;;;;;;;;5100408;28;20200;-61
2022/07/16 01:06:13;;;;;;;1.70;0.90;;;;;;;;;;5099810;28;20231;-61
2022/07/16 01:08:42;;;;;;;1.52;1.10;;;;;;;;;;5100151;28;20199;-61
2022/07/16 01:11:11;;;;;;;0.90;0.90;;;;;;;;;;5100021;28;20318;-61
2022/07/16 01:13:41;;;;;;;1.50;0.90;;;;;;;;;;5100567;28;20267;-61
2022/07/16 01:16:09;;;;;;;1.20;1.10;;;;;;;;;;5100004;28;20195;-61
2022/07/16 01:18:37;;;;;;;1.10;1.00;;;;;;;;;;5100608;28;20199;-61
2022/07/16 01:21:04;;;;;;;1.75;1.00;;;;;;;;;;5099675;28;20696;-61
2022/07/16 01:23:33;;;;;;;1.48;1.10;;;;;;;;;;5100137;28;20217;-61
2022/07/16 01:26:01;;;;;;;1.00;1.00;;;;;;;;;;5099545;28;20200;-61
2022/07/16 01:28:28;;;;;;;1.33;0.90;;;;;;;;;;5099814;28;20292;-61
2022/07/16 01:30:56;;;;;;;1.50;1.17;;;;;;;;;;5099424;28;20274;-61
2022/07/16 01:33:25;;;;;;;1.25;1.00;;;;;;;;;;5100499;28;20557;-61
2022/07/16 01:35:54;;;;;;;1.00;0.90;;;;;;;;;;5100288;28;20206;-61
2022/07/16 01:38:22;;;;;;;1.10;1.00;;;;;;;;;;5100468;28;20306;-61
2022/07/16 01:40:51;;;;;;;2.58;1.05;;;;;;;;;;5100357;28;20207;-61
2022/07/16 01:43:20;;;;;;;1.38;0.90;;;;;;;;;;5099887;28;20218;-61
2022/07/16 01:45:47;;;;;;;1.10;1.00;;;;;;;;;;5099879;28;20203;-61
2022/07/16 01:48:15;;;;;;;1.70;0.90;;;;;;;;;;5099609;28;20264;-61
2022/07/16 01:50:43;;;;;;;1.23;1.10;;;;;;;;;;5099054;28;20219;-61
2022/07/16 01:53:11;;;;;;;1.27;1.10;;;;;;;;;;5100005;28;20286;-61
2022/07/16 01:55:39;;;;;;;1.23;1.13;;;;;;;;;;5099747;28;20555;-61
2022/07/16 01:58:10;;;;;;;1.35;0.90;;;;;;;;;;5099952;28;20291;-61
2022/07/16 02:00:38;;;;;;;1.10;1.00;;;;;;;;;;5099456;28;20202;-61
2022/07/16 02:03:06;;;;;;;1.05;0.90;;;;;;;;;;5099248;28;20214;-61
2022/07/16 02:05:33;;;;;;;0.93;0.82;;;;;;;;;;5099113;28;20203;-61
2022/07/16 02:08:02;;;;;;;1.10;0.95;;;;;;;;;;5098947;28;20585;-62
2022/07/16 02:10:30;;;;;;;1.58;1.13;;;;;;;;;;5098494;28;20216;-61
2022/07/16 02:12:57;;;;;;;0.95;0.93;;;;;;;;;;5099029;28;20204;-61
2022/07/16 02:15:26;;;;;;;1.27;0.80;;;;;;;;;;5099335;28;20242;-61
2022/07/16 02:17:54;;;;;;;0.98;0.88;;;;;;;;;;5099037;28;20210;-61
2022/07/16 02:20:22;;;;;;;1.20;1.00;;;;;;;;;;5098826;28;20192;-62
2022/07/16 02:22:49;;;;;;;1.42;0.90;;;;;;;;;;5098778;28;20253;-61
2022/07/16 02:25:17;;;;;;;1.00;0.90;;;;;;;;;;5099022;28;20196;-61
2022/07/16 02:30:27;;;;;;;1.30;1.20;;;;;;;;;;5098395;28;20289;-61
2022/07/16 02:32:54;;;;;;;1.33;0.90;;;;;;;;;;5099022;28;20656;-61
2022/07/16 02:35:22;;;;;;;0.80;0.70;;;;;;;;;;5098865;28;20199;-61
2022/07/16 02:37:49;;;;;;;1.13;0.98;;;;;;;;;;5098032;28;20214;-61
2022/07/16 02:40:17;;;;;;;0.82;0.82;;;;;;;;;;5098630;28;20192;-61
2022/07/16 02:42:44;;;;;;;1.10;1.00;;;;;;;;;;5097267;28;20298;-61
2022/07/16 02:45:12;;;;;;;1.92;0.90;;;;;;;;;;5098238;28;20231;-61
2022/07/16 02:47:41;;;;;;;1.55;0.98;;;;;;;;;;5098815;28;20238;-61
2022/07/16 02:50:09;;;;;;;1.00;0.90;;;;;;;;;;5098023;28;20521;-61
2022/07/16 02:52:37;;;;;;;1.13;1.02;;;;;;;;;;5098395;28;20207;-61
2022/07/16 02:55:05;;;;;;;1.83;1.00;;;;;;;;;;5098149;28;20696;-61
2022/07/16 02:57:32;;;;;;;1.20;1.10;;;;;;;;;;5098333;28;20250;-61
2022/07/16 03:00:00;;;;;;;1.25;0.95;;;;;;;;;;5098236;28;20279;-61
2022/07/16 03:02:28;;;;;;;1.10;1.00;;;;;;;;;;5098359;28;20204;-61
2022/07/16 03:04:57;;;;;;;0.88;0.85;;;;;;;;;;5098039;28;20235;-61
2022/07/16 03:07:24;;;;;;;1.08;0.98;;;;;;;;;;5097967;28;20195;-61
2022/07/16 03:09:51;;;;;;;1.10;1.00;;;;;;;;;;5097783;28;20636;-61
2022/07/16 03:12:19;;;;;;;1.15;0.85;;;;;;;;;;5098321;28;20210;-61
2022/07/16 03:14:46;;;;;;;0.80;0.80;;;;;;;;;;5098483;28;20211;-61
2022/07/16 03:17:14;;;;;;;1.05;0.90;;;;;;;;;;5097519;28;20246;-61
2022/07/16 03:19:42;;;;;;;1.00;0.90;;;;;;;;;;5097779;28;20291;-61
2022/07/16 03:22:11;;;;;;;1.00;0.90;;;;;;;;;;5097921;28;20643;-61
2022/07/16 03:24:38;;;;;;;0.80;0.80;;;;;;;;;;5098190;28;20302;-61
2022/07/16 03:27:06;;;;;;;1.00;0.90;;;;;;;;;;5098025;28;20290;-61
2022/07/16 03:29:34;;;;;;;1.25;0.95;;;;;;;;;;5097981;28;20322;-61
2022/07/16 03:32:01;;;;;;;0.95;0.80;;;;;;;;;;5097422;28;20211;-61
2022/07/16 03:34:28;;;;;;;1.10;1.00;;;;;;;;;;5097627;28;20246;-61
2022/07/16 03:36:56;;;;;;;1.10;0.90;;;;;;;;;;5097459;28;20203;-62
2022/07/16 03:39:25;;;;;;;1.33;0.90;;;;;;;;;;5097365;28;20199;-61
2022/07/16 03:41:52;;;;;;;1.10;1.00;;;;;;;;;;5097405;28;20206;-61
2022/07/16 03:44:20;;;;;;;1.08;0.98;;;;;;;;;;5097227;28;20235;-61
2022/07/16 03:46:47;;;;;;;1.08;0.98;;;;;;;;;;5097262;28;20205;-61
2022/07/16 03:49:15;;;;;;;0.93;0.90;;;;;;;;;;5097752;28;20203;-61
2022/07/16 03:51:42;;;;;;;1.08;0.90;;;;;;;;;;5097011;28;20314;-61
2022/07/16 03:54:09;;;;;;;1.63;0.90;;;;;;;;;;5097097;28;20203;-61
2022/07/16 03:56:39;;;;;;;1.00;0.95;;;;;;;;;;5097232;28;20210;-61
2022/07/16 03:59:06;;;;;;;1.05;0.90;;;;;;;;;;5097560;28;20210;-61
2022/07/16 04:01:33;;;;;;;1.55;0.90;;;;;;;;;;5097149;28;20222;-61
2022/07/16 04:04:01;;;;;;;0.90;0.90;;;;;;;;;;5097521;28;20286;-61
2022/07/16 04:06:28;;;;;;;1.40;1.10;;;;;;;;;;5096954;28;20652;-61
2022/07/16 04:08:56;;;;;;;0.93;0.85;;;;;;;;;;5096891;28;20497;-61
2022/07/16 04:11:23;;;;;;;0.82;0.73;;;;;;;;;;5097327;28;20219;-61
2022/07/16 04:13:52;;;;;;;1.02;0.98;;;;;;;;;;5097364;28;20210;-61
2022/07/16 04:16:20;;;;;;;0.90;0.90;;;;;;;;;;5096568;28;20627;-61
2022/07/16 04:18:47;;;;;;;1.15;0.98;;;;;;;;;;5097258;28;20276;-61
2022/07/16 04:21:15;;;;;;;0.98;0.93;;;;;;;;;;5096799;28;20634;-61
2022/07/16 04:23:42;;;;;;;0.98;0.93;;;;;;;;;;5097405;28;20215;-61
2022/07/16 04:26:10;;;;;;;1.02;0.90;;;;;;;;;;5096497;28;20200;-61
2022/07/16 04:28:37;;;;;;;10.50;1.40;;;;;;;;;;5097196;28;20204;-61
2022/07/16 04:31:06;;;;;;;1.63;1.00;;;;;;;;;;5096957;28;20224;-61
2022/07/16 04:33:33;;;;;;;2.85;1.02;;;;;;;;;;5096889;28;20494;-61
2022/07/16 04:36:02;;;;;;;1.67;0.93;;;;;;;;;;5097110;28;20290;-61
2022/07/16 04:38:30;;;;;;;1.00;0.90;;;;;;;;;;5097089;28;20203;-61
2022/07/16 04:40:57;;;;;;;0.93;0.80;;;;;;;;;;5096776;28;20207;-61
2022/07/16 04:43:26;;;;;;;1.58;0.95;;;;;;;;;;5096080;28;20475;-61
2022/07/16 04:45:53;;;;;;;1.25;0.90;;;;;;;;;;5096673;28;20287;-61
2022/07/16 04:48:22;;;;;;;1.10;1.00;;;;;;;;;;5096303;28;20200;-61
2022/07/16 04:50:50;;;;;;;1.90;1.00;;;;;;;;;;5096597;28;20235;-61
2022/07/16 04:53:17;;;;;;;2.83;1.00;;;;;;;;;;5096466;28;20210;-61
2022/07/16 04:55:45;;;;;;;1.35;1.00;;;;;;;;;;5097166;28;20548;-61
2022/07/16 04:58:12;;;;;;;1.85;0.93;;;;;;;;;;5096726;28;20482;-61
2022/07/16 05:00:40;;;;;;;1.00;0.90;;;;;;;;;;5096867;28;20203;-61
2022/07/16 05:03:08;;;;;;;1.08;0.98;;;;;;;;;;5096901;28;20211;-61
2022/07/16 05:05:38;;;;;;;1.35;1.10;;;;;;;;;;5098744;28;20295;-61
2022/07/16 05:08:06;;;;;;;1.35;1.13;;;;;;;;;;5100300;28;20195;-61
2022/07/16 05:10:34;;;;;;;1.35;1.10;;;;;;;;;;5100362;28;20345;-61
2022/07/16 05:13:02;;;;;;;1.63;0.90;;;;;;;;;;5099596;28;20206;-61
2022/07/16 05:15:30;;;;;;;1.00;0.90;;;;;;;;;;5099888;28;20200;-62
2022/07/16 05:17:57;;;;;;;1.25;1.15;;;;;;;;;;5099579;28;20204;-61
2022/07/16 05:20:25;;;;;;;1.33;0.82;;;;;;;;;;5099712;28;20192;-61
2022/07/16 05:22:54;;;;;;;1.95;1.08;;;;;;;;;;5099254;28;20644;-61
2022/07/16 05:25:21;;;;;;;1.13;1.08;;;;;;;;;;5099609;28;20573;-62
2022/07/16 05:27:49;;;;;;;1.63;1.02;;;;;;;;;;5100004;28;20207;-61
2022/07/16 05:30:16;;;;;;;0.93;0.93;;;;;;;;;;5099792;28;20223;-61
2022/07/16 05:32:45;;;;;;;1.10;1.00;;;;;;;;;;5099449;28;20298;-61
2022/07/16 05:35:13;;;;;;;1.20;1.10;;;;;;;;;;5099191;28;20196;-61
2022/07/16 05:37:40;;;;;;;1.00;0.90;;;;;;;;;;5099508;28;20290;-61
2022/07/16 05:40:10;;;;;;;1.10;1.00;;;;;;;;;;5099582;28;20206;-62
2022/07/16 05:42:37;;;;;;;1.30;1.13;;;;;;;;;;5098931;28;20226;-62
2022/07/16 05:45:05;;;;;;;1.10;1.00;;;;;;;;;;5098975;28;20476;-61
2022/07/16 05:47:33;;;;;;;1.15;1.05;;;;;;;;;;5099498;28;20210;-61
2022/07/16 05:50:01;;;;;;;1.20;1.10;;;;;;;;;;5099029;28;20560;-61
2022/07/16 05:52:28;;;;;;;1.02;0.93;;;;;;;;;;5098836;28;20203;-61
2022/07/16 05:54:56;;;;;;;1.25;1.15;;;;;;;;;;5099378;28;20210;-61
2022/07/16 05:57:24;;;;;;;0.90;0.90;;;;;;;;;;5099386;28;20709;-61
2022/07/16 05:59:52;;;;;;;1.15;1.05;;;;;;;;;;5099157;28;20290;-61
2022/07/16 06:02:19;;;;;;;1.17;1.08;;;;;;;;;;5099138;28;20314;-61
2022/07/16 06:04:47;;;;;;;1.10;1.00;;;;;;;;;;5099075;28;20245;-61
2022/07/16 06:07:15;;;;;;;1.30;1.08;;;;;;;;;;5098540;28;20199;-62
2022/07/16 06:09:42;;;;;;;1.38;1.10;;;;;;;;;;5098626;28;20697;-64
2022/07/16 06:12:10;;;;;;;1.25;1.15;;;;;;;;;;5099202;28;20232;-61
2022/07/16 06:14:39;;;;;;;0.80;0.80;;;;;;;;;;5097419;28;20281;-61
2022/07/16 06:17:06;;;;;;;0.93;0.90;;;;;;;;;;5097493;28;20199;-62
2022/07/16 06:19:34;;;;;;;1.10;1.00;;;;;;;;;;5098151;28;20200;-61
2022/07/16 06:22:01;;;;;;;1.20;1.00;;;;;;;;;;5098134;28;20192;-61
2022/07/16 06:24:28;;;;;;;1.25;1.02;;;;;;;;;;5098039;28;20290;-61
2022/07/16 06:26:56;;;;;;;1.65;1.30;;;;;;;;;;5098580;28;20506;-61
2022/07/16 06:29:24;;;;;;;1.15;1.02;;;;;;;;;;5098289;28;20299;-61
2022/07/16 06:31:52;;;;;;;1.20;1.08;;;;;;;;;;5097773;28;20307;-62
2022/07/16 06:34:20;;;;;;;1.42;1.00;;;;;;;;;;5098016;28;20196;-61
2022/07/16 06:36:47;;;;;;;1.20;1.10;;;;;;;;;;5098112;28;20290;-61
2022/07/16 06:39:15;;;;;;;1.00;0.90;;;;;;;;;;5097718;28;20609;-61
2022/07/16 06:41:42;;;;;;;1.00;1.00;;;;;;;;;;5097504;28;20592;-61
2022/07/16 06:44:10;;;;;;;1.35;1.08;;;;;;;;;;5097932;28;20204;-62
2022/07/16 06:46:38;;;;;;;1.30;1.00;;;;;;;;;;5097415;28;20200;-61
2022/07/16 06:49:07;;;;;;;1.27;1.02;;;;;;;;;;5098112;28;20221;-61
2022/07/16 06:51:34;;;;;;;1.00;0.90;;;;;;;;;;5097132;28;20234;-61
2022/07/16 06:54:02;;;;;;;1.67;1.10;;;;;;;;;;5097942;28;20464;-61
2022/07/16 06:56:31;;;;;;;1.45;0.90;;;;;;;;;;5097096;28;20291;-61
2022/07/16 06:58:59;;;;;;;1.70;1.20;;;;;;;;;;5097365;28;20234;-61
2022/07/16 07:01:26;;;;;;;1.38;1.00;;;;;;;;;;5097556;28;20298;-62
2022/07/16 07:03:54;;;;;;;1.65;0.90;;;;;;;;;;5097655;28;20204;-61
2022/07/16 07:06:22;;;;;;;1.80;1.20;;;;;;;;;;5096895;28;20227;-61
2022/07/16 07:08:50;;;;;;;1.13;0.82;;;;;;;;;;5097683;28;20214;-61
2022/07/16 07:11:18;;;;;;;1.20;0.80;;;;;;;;;;5097509;28;20227;-61
2022/07/16 07:13:45;;;;;;;1.83;0.90;;;;;;;;;;5096991;28;20202;-60
2022/07/16 07:16:12;;;;;;;50.63;33.75;;;;;;;;;;5096489;28;20290;-60
2022/07/16 07:18:40;;;;;;;153.30;78.05;;;;;;;;;;5096731;28;20298;-60
2022/07/16 07:21:07;;;;;;;83.25;45.53;;;;;;;;;;5096998;28;20195;-61
2022/07/16 07:23:36;;;;;;;61.75;35.95;;;;;;;;;;5079964;28;20200;-61
2022/07/16 07:26:04;;;;;;;58.67;33.05;;;;;;;;;;5096550;28;20291;-62
2022/07/16 07:28:32;;;;;;;58.25;33.03;;;;;;;;;;5096505;28;20202;-61
2022/07/16 07:30:59;;;;;;;55.90;31.65;;;;;;;;;;5096706;28;20302;-61
2022/07/16 07:33:27;;;;;;;53.55;30.98;;;;;;;;;;5096865;28;20210;-61
2022/07/16 07:35:55;;;;;;;81.22;42.90;;;;;;;;;;5096589;28;20199;-61
2022/07/16 07:38:22;;;;;;;130.60;60.15;;;;;;;;;;5096488;28;20206;-61
2022/07/16 07:40:51;;;;;;;169.05;74.60;;;;;;;;;;5096972;28;20203;-61
2022/07/16 07:43:19;;;;;;;156.15;66.40;;;;;;;;;;5096577;28;20195;-61
2022/07/16 07:45:46;;;;;;;133.30;59.72;;;;;;;;;;5095945;28;20607;-61
2022/07/16 07:48:14;;;;;;;123.05;57.05;;;;;;;;;;5096485;28;20225;-61
2022/07/16 07:50:42;;;;;;;122.97;57.35;;;;;;;;;;5095774;28;20528;-61
2022/07/16 07:53:09;;;;;;;120.65;52.80;;;;;;;;;;5095783;28;20259;-60
2022/07/16 07:55:37;;;;;;;110.00;51.95;;;;;;;;;;5095870;28;20299;-60
2022/07/16 07:58:06;;;;;;;105.72;53.28;;;;;;;;;;5095911;28;20527;-61
2022/07/16 08:00:34;;;;;;;111.85;52.80;;;;;;;;;;5095150;28;20231;-60
2022/07/16 08:03:01;;;;;;;87.60;41.45;;;;;;;;;;5096127;28;20210;-65
2022/07/16 08:05:29;;;;;;;95.30;46.17;;;;;;;;;;5095730;28;20210;-61
2022/07/16 08:07:56;;;;;;;89.90;45.85;;;;;;;;;;5095828;28;20479;-61
2022/07/16 08:10:23;;;;;;;84.43;42.53;;;;;;;;;;5094875;28;20195;-60
2022/07/16 08:12:51;;;;;;;88.13;43.75;;;;;;;;;;5096008;28;20596;-61
2022/07/16 08:15:20;;;;;;;80.93;41.30;;;;;;;;;;5095653;28;20287;-61
2022/07/16 08:17:47;;;;;;;79.35;40.53;;;;;;;;;;5095449;28;20199;-61
2022/07/16 08:20:16;;;;;;;81.07;39.97;;;;;;;;;;5081815;28;20226;-61
2022/07/16 08:22:44;;;;;;;74.30;37.33;;;;;;;;;;5095956;28;20306;-61
2022/07/16 08:27:56;;;;;;;72.20;37.35;;;;;;;;;;5095793;28;20480;-61
2022/07/16 08:30:26;;;;;;;69.95;35.88;;;;;;;;;;5095278;28;20222;-61
2022/07/16 08:32:56;;;;;;;65.97;34.38;;;;;;;;;;5095700;28;20263;-60
2022/07/16 08:35:23;;;;;;;62.28;31.55;;;;;;;;;;5094912;28;20230;-61
2022/07/16 08:37:51;;;;;;;53.35;29.38;;;;;;;;;;5096194;28;20206;-61
2022/07/16 08:40:19;;;;;;;50.35;26.88;;;;;;;;;;5097166;28;20282;-61
2022/07/16 08:42:47;;;;;;;51.63;27.45;;;;;;;;;;5099703;28;20286;-61
2022/07/16 08:45:15;;;;;;;45.20;24.88;;;;;;;;;;5099441;28;20231;-60
2022/07/16 08:47:46;;;;;;;44.97;24.45;;;;;;;;;;5099283;28;20597;-64
2022/07/16 08:50:15;;;;;;;42.67;22.83;;;;;;;;;;5098016;28;20224;-64
2022/07/16 08:52:44;;;;;;;39.13;21.13;;;;;;;;;;5097526;28;20276;-64
2022/07/16 08:55:12;;;;;;;39.90;20.60;;;;;;;;;;5098566;28;20275;-63
2022/07/16 08:57:41;;;;;;;38.35;20.35;;;;;;;;;;5097924;28;20204;-64
2022/07/16 09:00:10;;;;;;;40.10;19.75;;;;;;;;;;5097816;28;20188;-64
2022/07/16 09:02:38;;;;;;;34.95;19.88;;;;;;;;;;5098342;28;20286;-64
2022/07/16 09:05:08;;;;;;;37.35;18.85;;;;;;;;;;5098671;28;20296;-64
2022/07/16 09:07:36;;;;;;;30.25;17.17;;;;;;;;;;5098731;28;20303;-64
2022/07/16 09:10:04;;;;;;;29.75;16.77;;;;;;;;;;5097866;28;20282;-64
2022/07/16 09:12:35;;;;;;;34.55;17.85;;;;;;;;;;5098357;28;20224;-64
2022/07/16 09:15:22;;;;;;;48.78;27.50;;;;;;;;;;5097650;28;20199;-63
2022/07/16 09:18:07;;;;;;;43.67;24.65;;;;;;;;;;5096794;28;20290;-63
2022/07/16 09:20:36;;;;;;;44.42;23.70;;;;;;;;;;5097541;28;20573;-63
2022/07/16 09:23:03;;;;;;;41.90;23.55;;;;;;;;;;5098302;28;20200;-64
2022/07/16 09:25:31;;;;;;;37.33;20.83;;;;;;;;;;5097924;28;20564;-64
2022/07/16 09:27:59;;;;;;;40.03;21.35;;;;;;;;;;5097516;28;20245;-64
2022/07/16 09:30:27;;;;;;;36.60;19.88;;;;;;;;;;5097887;28;20261;-64
2022/07/16 09:32:54;;;;;;;35.58;19.75;;;;;;;;;;5097237;28;20227;-64
2022/07/16 09:35:22;;;;;;;34.08;19.00;;;;;;;;;;5097747;28;20291;-64
2022/07/16 09:37:52;;;;;;;32.17;19.13;;;;;;;;;;5098468;28;20290;-63
2022/07/16 09:40:31;;;;;;;28.92;17.35;;;;;;;;;;5097575;28;20488;-64
2022/07/16 09:42:58;;;;;;;31.08;17.08;;;;;;;;;;5098441;28;20205;-64
2022/07/16 09:45:27;;;;;;;31.42;15.63;;;;;;;;;;5096550;28;20187;-64
2022/07/16 09:47:54;;;;;;;27.42;15.00;;;;;;;;;;5097522;28;20282;-64
2022/07/16 09:50:22;;;;;;;25.25;14.63;;;;;;;;;;5096466;28;20204;-64
2022/07/16 09:52:51;;;;;;;23.60;13.98;;;;;;;;;;5096691;28;20315;-66
2022/07/16 09:55:18;;;;;;;21.92;13.30;;;;;;;;;;5096399;28;20282;-63
2022/07/16 09:57:48;;;;;;;21.27;12.50;;;;;;;;;;5096654;28;20672;-63
2022/07/16 10:00:16;;;;;;;22.73;12.70;;;;;;;;;;5096400;28;20249;-64
2022/07/16 10:02:44;;;;;;;20.35;12.05;;;;;;;;;;5096601;28;20191;-64
2022/07/16 10:05:13;;;;;;;21.75;11.70;;;;;;;;;;5096328;28;20213;-63
2022/07/16 10:07:40;;;;;;;20.75;10.93;;;;;;;;;;5096535;28;20287;-64
2022/07/16 10:10:13;;;;;;;19.45;10.45;;;;;;;;;;5095999;28;20286;-64
2022/07/16 10:12:41;;;;;;;18.50;10.13;;;;;;;;;;5096099;28;20234;-63
2022/07/16 10:15:09;;;;;;;16.40;9.00;;;;;;;;;;5096084;28;20204;-63
2022/07/16 10:17:37;;;;;;;13.60;8.60;;;;;;;;;;5097068;28;20497;-64
2022/07/16 10:20:08;;;;;;;16.77;9.05;;;;;;;;;;5095847;28;20282;-64
2022/07/16 10:22:36;;;;;;;14.48;8.43;;;;;;;;;;5097028;28;20526;-64
2022/07/16 10:25:11;;;;;;;13.63;7.90;;;;;;;;;;5095974;28;20291;-64
2022/07/16 10:27:41;;;;;;;14.07;7.80;;;;;;;;;;5097120;28;20290;-65
2022/07/16 10:30:14;;;;;;;13.13;7.35;;;;;;;;;;5094908;28;20199;-64
2022/07/16 10:33:00;;;;;;;9.63;6.25;;;;;;;;;;5097018;28;20227;-64
2022/07/16 10:35:31;;;;;;;11.13;6.80;;;;;;;;;;5096417;28;20497;-64
2022/07/16 10:38:05;;;;;;;12.35;6.90;;;;;;;;;;5097011;28;20286;-64
2022/07/16 10:40:33;;;;;;;13.48;7.35;;;;;;;;;;5096300;28;20199;-64
2022/07/16 10:43:18;;;;;;;10.00;6.05;;;;;;;;;;5095892;28;20459;-64
2022/07/16 10:45:56;;;;;;;8.98;5.93;;;;;;;;;;5096078;28;20198;-64
2022/07/16 10:48:25;;;;;;;9.10;5.63;;;;;;;;;;5096348;28;20306;-63
2022/07/16 10:51:11;;;;;;;9.82;5.60;;;;;;;;;;5094868;28;20235;-63
2022/07/16 10:53:58;;;;;;;7.20;5.20;;;;;;;;;;5095587;28;20215;-64
2022/07/16 10:56:34;;;;;;;7.68;5.22;;;;;;;;;;5096100;28;20206;-64
2022/07/16 10:59:03;;;;;;;7.57;5.20;;;;;;;;;;5096281;28;20642;-64
2022/07/16 11:01:33;;;;;;;9.75;5.30;;;;;;;;;;5096057;28;20607;-64
2022/07/16 11:04:02;;;;;;;11.60;5.25;;;;;;;;;;5095186;28;20200;-64
2022/07/16 11:06:30;;;;;;;7.47;4.85;;;;;;;;;;5095732;28;20199;-64
2022/07/16 11:08:58;;;;;;;8.48;5.32;;;;;;;;;;5095744;28;20211;-64
2022/07/16 11:11:32;;;;;;;7.78;5.20;;;;;;;;;;5095442;28;20210;-64
2022/07/16 11:14:00;;;;;;;7.05;4.60;;;;;;;;;;5095872;28;20199;-64
2022/07/16 11:16:29;;;;;;;8.32;4.78;;;;;;;;;;5094591;28;20272;-64
2022/07/16 11:19:00;;;;;;;6.43;4.55;;;;;;;;;;5096429;28;20203;-64
2022/07/16 11:21:27;;;;;;;7.80;4.40;;;;;;;;;;5094943;28;20206;-64
2022/07/16 11:23:56;;;;;;;6.75;4.60;;;;;;;;;;5095463;28;20219;-64
2022/07/16 11:26:24;;;;;;;9.05;4.75;;;;;;;;;;5095968;28;20199;-64
2022/07/16 11:28:55;;;;;;;5.57;4.00;;;;;;;;;;5094979;28;20629;-63
2022/07/16 11:31:25;;;;;;;6.97;4.50;;;;;;;;;;5095534;28;20195;-63
2022/07/16 11:33:55;;;;;;;6.50;3.75;;;;;;;;;;5095228;28;20227;-64
2022/07/16 11:36:27;;;;;;;6.18;4.25;;;;;;;;;;5094800;28;20287;-64
2022/07/16 11:38:57;;;;;;;5.40;3.78;;;;;;;;;;5094530;28;20490;-64
2022/07/16 11:41:25;;;;;;;5.70;4.00;;;;;;;;;;5094089;28;20200;-64
2022/07/16 11:43:52;;;;;;;4.68;3.65;;;;;;;;;;5094719;28;20290;-63
2022/07/16 11:46:24;;;;;;;6.03;3.92;;;;;;;;;;5093647;28;20205;-64
2022/07/16 11:48:51;;;;;;;7.15;3.97;;;;;;;;;;5094833;28;20200;-64
2022/07/16 11:51:21;;;;;;;5.25;3.75;;;;;;;;;;5094431;28;20326;-65
2022/07/16 11:53:50;;;;;;;5.15;3.65;;;;;;;;;;5094343;28;20223;-64
2022/07/16 11:56:31;;;;;;;8.05;3.65;;;;;;;;;;5094216;28;20483;-64
2022/07/16 11:58:59;;;;;;;4.45;3.22;;;;;;;;;;5095499;28;20278;-64
2022/07/16 12:01:26;;;;;;;4.85;3.35;;;;;;;;;;5091558;28;20187;-63
2022/07/16 12:03:54;;;;;;;6.30;3.60;;;;;;;;;;5095239;28;20842;-63
2022/07/16 12:06:23;;;;;;;5.38;3.47;;;;;;;;;;5094679;28;20239;-64
2022/07/16 12:08:57;;;;;;;4.80;3.47;;;;;;;;;;5094745;28;20664;-64
2022/07/16 12:11:31;;;;;;;4.38;3.25;;;;;;;;;;5094308;28;20200;-64
2022/07/16 12:13:59;;;;;;;3.97;3.00;;;;;;;;;;5096534;28;20215;-64
2022/07/16 12:16:27;;;;;;;3.45;2.75;;;;;;;;;;5098382;28;20196;-63
2022/07/16 12:19:02;;;;;;;3.92;3.08;;;;;;;;;;5098974;28;20652;-64
2022/07/16 12:21:31;;;;;;;4.00;3.00;;;;;;;;;;5098394;28;20603;-64
2022/07/16 12:23:59;;;;;;;3.45;2.88;;;;;;;;;;5098254;28;20577;-64
2022/07/16 12:26:33;;;;;;;3.97;2.97;;;;;;;;;;5097565;28;20286;-64
2022/07/16 12:29:00;;;;;;;4.03;2.90;;;;;;;;;;5097973;28;20298;-64
2022/07/16 12:31:29;;;;;;;5.30;2.85;;;;;;;;;;5098552;28;20204;-63
2022/07/16 12:33:57;;;;;;;5.88;3.20;;;;;;;;;;5098488;28;20322;-63
2022/07/16 12:36:31;;;;;;;3.65;2.92;;;;;;;;;;5098144;28;20208;-63
2022/07/16 12:39:03;;;;;;;3.67;2.53;;;;;;;;;;5097042;28;20298;-64
2022/07/16 12:41:32;;;;;;;3.38;2.78;;;;;;;;;;5097969;28;20203;-63
2022/07/16 12:44:00;;;;;;;3.88;2.60;;;;;;;;;;5097272;28;20207;-64
2022/07/16 12:46:29;;;;;;;3.53;2.78;;;;;;;;;;5097647;28;20199;-63
2022/07/16 12:48:57;;;;;;;3.17;2.50;;;;;;;;;;5097913;28;20306;-64
2022/07/16 12:51:27;;;;;;;3.33;2.55;;;;;;;;;;5097589;28;20283;-63
2022/07/16 12:53:57;;;;;;;4.03;2.88;;;;;;;;;;5098425;28;20224;-64
2022/07/16 12:59:09;;;;;;;4.68;2.47;;;;;;;;;;5097391;28;20203;-64
2022/07/16 13:01:37;;;;;;;6.40;2.80;;;;;;;;;;5097186;28;20210;-63
2022/07/16 13:04:05;;;;;;;7.63;2.90;;;;;;;;;;5097690;28;20210;-64
2022/07/16 13:06:33;;;;;;;5.35;2.70;;;;;;;;;;5096947;28;20208;-65
2022/07/16 13:09:01;;;;;;;5.10;2.55;;;;;;;;;;5097938;28;20195;-64
2022/07/16 13:11:29;;;;;;;5.80;3.67;;;;;;;;;;5097619;28;20211;-64
2022/07/16 13:13:57;;;;;;;8.30;4.85;;;;;;;;;;5097443;28;20326;-64
2022/07/16 13:16:25;;;;;;;11.18;5.28;;;;;;;;;;5096832;28;20200;-64
2022/07/16 13:18:53;;;;;;;8.60;5.25;;;;;;;;;;5097589;28;20282;-64
2022/07/16 13:21:23;;;;;;;11.60;6.25;;;;;;;;;;5096855;28;20290;-64
2022/07/16 13:23:54;;;;;;;9.27;5.55;;;;;;;;;;5097270;28;20215;-64
2022/07/16 13:26:23;;;;;;;8.10;5.45;;;;;;;;;;5096330;28;20210;-64
2022/07/16 13:28:51;;;;;;;11.45;5.60;;;;;;;;;;5097339;28;20210;-64
2022/07/16 13:31:19;;;;;;;21.73;12.07;;;;;;;;;;5096977;28;20207;-64
2022/07/16 13:33:46;;;;;;;26.67;13.15;;;;;;;;;;5097565;28;20219;-64
2022/07/16 13:36:14;;;;;;;23.88;13.98;;;;;;;;;;5097364;28;20596;-63
2022/07/16 13:38:42;;;;;;;24.33;13.85;;;;;;;;;;5097157;28;20310;-64
2022/07/16 13:41:12;;;;;;;25.50;14.32;;;;;;;;;;5097647;28;20282;-64
2022/07/16 13:43:41;;;;;;;28.13;15.07;;;;;;;;;;5098037;28;20828;-64
2022/07/16 13:46:09;;;;;;;26.65;13.52;;;;;;;;;;5096487;28;20204;-63
2022/07/16 13:48:37;;;;;;;27.00;14.55;;;;;;;;;;5096940;28;20303;-64
2022/07/16 13:51:05;;;;;;;23.88;13.27;;;;;;;;;;5097366;28;20322;-63
2022/07/16 13:53:32;;;;;;;22.77;13.40;;;;;;;;;;5097230;28;20328;-64
2022/07/16 13:56:00;;;;;;;21.77;10.90;;;;;;;;;;5096600;28;20286;-64
2022/07/16 13:58:27;;;;;;;16.95;9.70;;;;;;;;;;5096908;28;20195;-64
2022/07/16 14:00:58;;;;;;;15.57;10.20;;;;;;;;;;5097742;28;20199;-63
2022/07/16 14:03:26;;;;;;;22.80;12.50;;;;;;;;;;5096725;28;20488;-64
2022/07/16 14:05:53;;;;;;;17.30;10.55;;;;;;;;;;5096974;28;20299;-64
2022/07/16 14:08:21;;;;;;;17.45;11.20;;;;;;;;;;5097173;28;20314;-64
2022/07/16 14:10:49;;;;;;;16.27;9.82;;;;;;;;;;5096211;28;20868;-63
2022/07/16 14:13:17;;;;;;;14.48;8.88;;;;;;;;;;5096570;28;20314;-63
2022/07/16 14:15:45;;;;;;;13.75;8.40;;;;;;;;;;5096155;28;20210;-64
2022/07/16 14:18:14;;;;;;;15.73;9.23;;;;;;;;;;5096920;28;20608;-65
2022/07/16 14:20:42;;;;;;;12.18;7.55;;;;;;;;;;5096775;28;20199;-64
2022/07/16 14:23:11;;;;;;;11.20;6.75;;;;;;;;;;5095472;28;20234;-65
2022/07/16 14:25:39;;;;;;;9.95;6.47;;;;;;;;;;5095785;28;20589;-65
2022/07/16 14:28:06;;;;;;;11.20;6.45;;;;;;;;;;5095473;28;20196;-64
2022/07/16 14:30:34;;;;;;;9.32;6.38;;;;;;;;;;5095901;28;20214;-63
2022/07/16 14:33:01;;;;;;;11.57;7.30;;;;;;;;;;5096504;28;20314;-63
2022/07/16 14:35:30;;;;;;;11.40;6.78;;;;;;;;;;5095839;28;20698;-63
2022/07/16 14:37:58;;;;;;;9.70;5.75;;;;;;;;;;5096041;28;20286;-64
2022/07/16 14:40:25;;;;;;;10.85;6.82;;;;;;;;;;5096001;28;20626;-62
2022/07/16 14:42:53;;;;;;;10.55;6.45;;;;;;;;;;5095890;28;20306;-63
2022/07/16 14:45:21;;;;;;;9.85;6.00;;;;;;;;;;5095392;28;20195;-64
2022/07/16 14:47:49;;;;;;;8.75;5.88;;;;;;;;;;5095782;28;20196;-63
2022/07/16 14:50:17;;;;;;;8.38;5.68;;;;;;;;;;5095223;28;20206;-63
2022/07/16 14:52:46;;;;;;;10.00;5.30;;;;;;;;;;5095605;28;20295;-63